createdAt,value
2023-05-22T00:00:08.664Z,16.70
2023-05-22T00:02:38.841Z,16.70
2023-05-22T00:05:06.850Z,16.70
2023-05-22T00:07:33.622Z,16.70
2023-05-22T00:10:00.269Z,16.70
2023-05-22T00:12:26.924Z,16.70
2023-05-22T00:14:53.600Z,16.70
2023-05-22T00:17:20.478Z,16.70
2023-05-22T00:19:47.698Z,16.70
2023-05-22T00:22:14.362Z,16.70
2023-05-22T00:24:41.044Z,16.70
2023-05-22T00:27:07.728Z,16.70
2023-05-22T00:29:34.634Z,16.70
2023-05-22T00:32:01.325Z,16.70
2023-05-22T00:34:28.053Z,16.70
2023-05-22T00:36:55.071Z,16.70
2023-05-22T00:39:21.782Z,16.70
2023-05-22T00:41:48.547Z,16.70
2023-05-22T00:44:15.378Z,16.70
2023-05-22T00:46:43.135Z,16.70
2023-05-22T00:49:09.914Z,16.70
2023-05-22T00:51:36.618Z,16.70
2023-05-22T00:54:04.457Z,16.70
2023-05-22T00:56:31.219Z,16.70
2023-05-22T00:58:59.008Z,16.70
2023-05-22T01:01:26.491Z,16.70
2023-05-22T01:03:54.072Z,16.70
2023-05-22T01:06:24.322Z,16.70
2023-05-22T01:08:51.025Z,16.60
2023-05-22T01:11:48.587Z,16.60
2023-05-22T01:14:31.057Z,16.60
2023-05-22T01:17:40.669Z,16.60
2023-05-22T01:20:35.361Z,16.60
2023-05-22T01:23:26.709Z,16.60
2023-05-22T01:26:35.505Z,16.60
2023-05-22T01:29:29.097Z,16.50
2023-05-22T01:31:58.685Z,16.50
2023-05-22T01:34:26.556Z,16.40
2023-05-22T01:36:54.517Z,16.40
2023-05-22T01:39:22.696Z,16.40
2023-05-22T01:41:50.274Z,16.30
2023-05-22T01:44:16.999Z,16.30
2023-05-22T01:46:43.659Z,16.30
2023-05-22T01:49:10.697Z,16.30
2023-05-22T01:51:50.782Z,16.30
2023-05-22T01:54:39.153Z,16.30
2023-05-22T01:57:18.730Z,16.30
2023-05-22T01:59:47.614Z,16.20
2023-05-22T02:02:17.989Z,16.20
2023-05-22T02:04:54.357Z,16.20
2023-05-22T02:07:24.894Z,16.20
2023-05-22T02:09:55.647Z,16.20
2023-05-22T02:12:23.345Z,16.20
2023-05-22T02:14:50.477Z,16.20
2023-05-22T02:17:21.995Z,16.20
2023-05-22T02:19:48.851Z,16.20
2023-05-22T02:22:15.608Z,16.20
2023-05-22T02:24:45.860Z,16.20
2023-05-22T02:27:12.905Z,16.20
2023-05-22T02:29:40.059Z,16.30
2023-05-22T02:32:06.996Z,16.30
2023-05-22T02:34:33.714Z,16.30
2023-05-22T02:37:03.604Z,16.30
2023-05-22T02:39:30.860Z,16.30
2023-05-22T02:41:57.563Z,16.30
2023-05-22T02:44:24.252Z,16.30
2023-05-22T02:46:51.007Z,16.30
2023-05-22T02:49:17.739Z,16.30
2023-05-22T02:51:47.552Z,16.30
2023-05-22T02:54:15.919Z,16.30
2023-05-22T02:56:43.245Z,16.30
2023-05-22T02:59:10.176Z,16.30
2023-05-22T03:01:38.702Z,16.30
2023-05-22T03:04:06.558Z,16.20
2023-05-22T03:06:35.057Z,16.20
2023-05-22T03:09:03.947Z,16.20
2023-05-22T03:11:31.580Z,16.10
2023-05-22T03:13:58.574Z,16.10
2023-05-22T03:16:25.892Z,16.10
2023-05-22T03:19:16.463Z,16.10
2023-05-22T03:21:48.401Z,16.10
2023-05-22T03:24:15.147Z,16.10
2023-05-22T03:26:42.014Z,16.10
2023-05-22T03:29:08.765Z,16.10
2023-05-22T03:31:36.448Z,16.10
2023-05-22T03:34:03.701Z,16.10
2023-05-22T03:36:34.026Z,16.10
2023-05-22T03:39:01.013Z,16.10
2023-05-22T03:41:27.748Z,16.10
2023-05-22T03:43:54.438Z,16.10
2023-05-22T03:46:21.352Z,16.00
2023-05-22T03:48:48.246Z,16.00
2023-05-22T03:51:14.956Z,16.00
2023-05-22T03:53:41.635Z,16.00
2023-05-22T03:56:08.327Z,16.00
2023-05-22T03:58:35.027Z,16.00
2023-05-22T04:01:01.906Z,16.00
2023-05-22T04:03:28.736Z,16.00
2023-05-22T04:05:56.800Z,16.10
2023-05-22T04:08:23.582Z,16.10
2023-05-22T04:10:50.251Z,16.10
2023-05-22T04:13:17.331Z,16.10
2023-05-22T04:15:46.760Z,16.10
2023-05-22T04:18:14.108Z,16.10
2023-05-22T04:20:41.157Z,16.10
2023-05-22T04:23:08.113Z,16.10
2023-05-22T04:25:36.386Z,16.10
2023-05-22T04:28:04.102Z,16.10
2023-05-22T04:30:33.989Z,16.10
2023-05-22T04:33:01.541Z,16.10
2023-05-22T04:35:29.589Z,16.20
2023-05-22T04:38:02.542Z,16.20
2023-05-22T04:40:30.353Z,16.20
2023-05-22T04:42:59.824Z,16.20
2023-05-22T04:45:30.562Z,16.20
2023-05-22T04:47:57.340Z,16.20
2023-05-22T04:50:24.232Z,16.20
2023-05-22T04:52:50.989Z,16.30
2023-05-22T04:55:19.134Z,16.30
2023-05-22T04:57:46.033Z,16.30
2023-05-22T05:00:14.464Z,16.30
2023-05-22T05:02:41.364Z,16.40
2023-05-22T05:05:08.558Z,16.40
2023-05-22T05:07:39.361Z,16.40
2023-05-22T05:10:07.271Z,16.40
2023-05-22T05:12:34.217Z,16.50
2023-05-22T05:15:01.104Z,16.50
2023-05-22T05:17:27.806Z,16.50
2023-05-22T05:19:54.570Z,16.60
2023-05-22T05:22:21.279Z,16.60
2023-05-22T05:24:48.019Z,16.70
2023-05-22T05:27:15.243Z,16.70
2023-05-22T05:29:42.496Z,16.70
2023-05-22T05:32:10.107Z,16.70
2023-05-22T05:34:36.888Z,16.80
2023-05-22T05:37:05.813Z,16.80
2023-05-22T05:39:32.647Z,16.80
2023-05-22T05:42:00.224Z,16.80
2023-05-22T05:44:27.121Z,16.90
2023-05-22T05:46:54.025Z,16.90
2023-05-22T05:49:20.799Z,16.90
2023-05-22T05:51:47.428Z,16.90
2023-05-22T05:54:14.167Z,16.90
2023-05-22T05:57:51.150Z,16.90
2023-05-22T06:00:18.429Z,16.90
2023-05-22T06:02:50.333Z,17.00
2023-05-22T06:05:19.270Z,17.00
2023-05-22T06:07:46.311Z,17.00
2023-05-22T06:10:13.039Z,17.10
2023-05-22T06:12:40.044Z,17.10
2023-05-22T06:15:07.679Z,17.20
2023-05-22T06:17:35.200Z,17.30
2023-05-22T06:20:01.973Z,17.30
2023-05-22T06:22:29.394Z,17.40
2023-05-22T06:24:56.146Z,17.40
2023-05-22T06:27:24.153Z,17.50
2023-05-22T06:29:51.385Z,17.60
2023-05-22T06:32:18.860Z,17.70
2023-05-22T06:34:48.019Z,17.70
2023-05-22T06:37:14.907Z,17.80
2023-05-22T06:39:41.633Z,17.90
2023-05-22T06:42:08.360Z,17.90
2023-05-22T06:44:37.146Z,18.00
2023-05-22T06:47:04.185Z,18.10
2023-05-22T06:49:30.852Z,18.20
2023-05-22T06:51:57.561Z,18.20
2023-05-22T06:54:24.252Z,18.30
2023-05-22T06:56:50.962Z,18.30
2023-05-22T06:59:17.896Z,18.40
2023-05-22T07:01:44.651Z,18.40
2023-05-22T07:04:13.301Z,18.50
2023-05-22T07:06:41.821Z,18.50
2023-05-22T07:09:11.014Z,18.60
2023-05-22T07:11:37.828Z,18.60
2023-05-22T07:14:04.556Z,18.70
2023-05-22T07:16:31.506Z,18.70
2023-05-22T07:18:58.439Z,18.80
2023-05-22T07:21:25.140Z,18.80
2023-05-22T07:23:52.930Z,18.90
2023-05-22T07:26:19.708Z,18.90
2023-05-22T07:28:46.390Z,19.00
2023-05-22T07:31:13.109Z,19.00
2023-05-22T07:33:39.937Z,19.10
2023-05-22T07:36:06.883Z,19.10
2023-05-22T07:38:33.597Z,19.20
2023-05-22T07:41:00.254Z,19.20
2023-05-22T07:43:26.938Z,19.30
2023-05-22T07:45:54.303Z,19.30
2023-05-22T07:48:21.134Z,19.30
2023-05-22T07:50:47.880Z,19.40
2023-05-22T07:53:14.949Z,19.40
2023-05-22T07:55:42.292Z,19.50
2023-05-22T07:58:10.759Z,19.50
2023-05-22T08:00:37.462Z,19.60
2023-05-22T08:03:04.523Z,19.60
2023-05-22T08:05:31.344Z,19.60
2023-05-22T08:07:58.095Z,19.60
2023-05-22T08:10:26.442Z,19.70
2023-05-22T08:12:53.306Z,19.80
2023-05-22T08:15:20.167Z,19.80
2023-05-22T08:17:46.984Z,19.90
2023-05-22T08:20:13.846Z,19.90
2023-05-22T08:22:41.849Z,20.00
2023-05-22T08:25:09.230Z,20.00
2023-05-22T08:27:36.052Z,20.10
2023-05-22T08:30:04.557Z,20.10
2023-05-22T08:32:31.715Z,20.20
2023-05-22T08:34:59.457Z,20.20
2023-05-22T08:37:26.432Z,20.30
2023-05-22T08:39:53.200Z,20.40
2023-05-22T08:42:20.024Z,20.40
2023-05-22T08:44:47.533Z,20.50
2023-05-22T08:47:15.555Z,20.50
2023-05-22T08:49:43.587Z,20.50
2023-05-22T08:52:18.550Z,20.60
2023-05-22T08:54:53.111Z,20.60
2023-05-22T08:57:20.702Z,20.60
2023-05-22T08:59:48.315Z,20.60
2023-05-22T09:02:17.194Z,20.70
2023-05-22T09:04:44.042Z,20.70
2023-05-22T09:07:10.831Z,20.80
2023-05-22T09:09:38.622Z,20.80
2023-05-22T09:12:10.116Z,20.80
2023-05-22T09:14:42.125Z,20.90
2023-05-22T09:17:11.307Z,20.90
2023-05-22T09:19:43.113Z,21.00
2023-05-22T09:22:09.801Z,21.10
2023-05-22T09:24:43.557Z,21.10
2023-05-22T09:27:11.395Z,21.10
2023-05-22T09:29:48.667Z,21.20
2023-05-22T09:32:17.010Z,21.20
2023-05-22T09:34:45.122Z,21.20
2023-05-22T09:37:14.642Z,21.30
2023-05-22T09:39:46.148Z,21.30
2023-05-22T09:42:15.416Z,21.30
2023-05-22T09:44:44.938Z,21.30
2023-05-22T09:47:11.655Z,21.40
2023-05-22T09:49:43.408Z,21.40
2023-05-22T09:52:15.055Z,21.50
2023-05-22T09:54:55.208Z,21.50
2023-05-22T09:57:23.041Z,21.60
2023-05-22T09:59:57.431Z,21.60
2023-05-22T10:02:26.034Z,21.60
2023-05-22T10:04:54.630Z,21.60
2023-05-22T10:07:34.768Z,21.60
2023-05-22T10:10:09.311Z,21.80
2023-05-22T10:12:53.966Z,21.80
2023-05-22T10:15:21.341Z,21.80
2023-05-22T10:17:49.312Z,21.90
2023-05-22T10:20:16.977Z,22.00
2023-05-22T10:22:44.346Z,22.00
2023-05-22T10:25:11.701Z,22.00
2023-05-22T10:27:40.697Z,22.00
2023-05-22T10:30:32.507Z,22.10
2023-05-22T10:33:30.924Z,22.20
2023-05-22T10:36:02.554Z,22.30
2023-05-22T10:38:51.694Z,22.30
2023-05-22T10:41:18.733Z,22.30
2023-05-22T10:43:49.280Z,22.40
2023-05-22T10:46:16.444Z,22.50
2023-05-22T10:48:47.774Z,22.50
2023-05-22T10:51:17.946Z,22.50
2023-05-22T10:53:47.231Z,22.50
2023-05-22T10:56:18.075Z,22.60
2023-05-22T10:58:55.583Z,22.60
2023-05-22T11:01:26.062Z,22.70
2023-05-22T11:04:09.318Z,22.70
2023-05-22T11:06:36.068Z,22.70
2023-05-22T11:09:35.055Z,22.70
2023-05-22T11:12:24.705Z,22.70
2023-05-22T11:14:51.488Z,22.80
2023-05-22T11:17:25.849Z,22.90
2023-05-22T11:20:03.206Z,22.90
2023-05-22T11:22:41.162Z,23.10
2023-05-22T11:25:16.631Z,23.20
2023-05-22T11:27:44.650Z,23.40
2023-05-22T11:30:12.602Z,23.50
2023-05-22T11:32:41.359Z,23.60
2023-05-22T11:35:08.625Z,23.70
2023-05-22T11:37:41.739Z,23.90
2023-05-22T11:40:09.623Z,24.10
2023-05-22T11:42:37.794Z,24.30
2023-05-22T11:45:05.401Z,24.50
2023-05-22T11:47:32.400Z,24.70
2023-05-22T11:49:59.867Z,24.80
2023-05-22T11:52:32.374Z,25.00
2023-05-22T11:54:59.792Z,25.20
2023-05-22T11:57:26.802Z,25.30
2023-05-22T11:59:53.472Z,25.50
2023-05-22T12:02:20.476Z,25.60
2023-05-22T12:04:47.188Z,25.70
2023-05-22T12:07:14.412Z,25.90
2023-05-22T12:09:42.735Z,25.90
2023-05-22T12:12:11.511Z,26.00
2023-05-22T12:14:38.384Z,26.10
2023-05-22T12:17:05.260Z,26.10
2023-05-22T12:19:32.641Z,26.10
2023-05-22T12:21:59.693Z,26.20
2023-05-22T12:24:26.540Z,26.20
2023-05-22T12:26:53.918Z,26.30
2023-05-22T12:29:23.584Z,26.30
2023-05-22T12:31:50.965Z,26.30
2023-05-22T12:34:21.181Z,26.30
2023-05-22T12:36:48.661Z,26.30
2023-05-22T12:39:19.280Z,26.30
2023-05-22T12:41:46.452Z,26.30
2023-05-22T12:44:16.819Z,26.30
2023-05-22T12:46:43.764Z,26.30
2023-05-22T12:49:11.232Z,26.30
2023-05-22T12:51:38.039Z,26.40
2023-05-22T12:54:05.073Z,26.40
2023-05-22T12:56:32.319Z,26.40
2023-05-22T12:58:58.992Z,26.50
2023-05-22T13:01:26.232Z,26.50
2023-05-22T13:03:53.045Z,26.50
2023-05-22T13:06:20.542Z,26.50
2023-05-22T13:08:47.250Z,26.40
2023-05-22T13:11:13.929Z,26.40
2023-05-22T13:13:40.715Z,26.30
2023-05-22T13:16:07.484Z,26.20
2023-05-22T13:18:34.199Z,26.10
2023-05-22T13:21:01.063Z,26.00
2023-05-22T13:23:27.829Z,25.90
2023-05-22T13:25:54.480Z,25.90
2023-05-22T13:28:21.370Z,25.80
2023-05-22T13:30:48.095Z,25.70
2023-05-22T13:33:14.826Z,25.70
2023-05-22T13:35:41.725Z,25.60
2023-05-22T13:38:08.681Z,25.60
2023-05-22T13:40:35.404Z,25.50
2023-05-22T13:43:02.149Z,25.50
2023-05-22T13:45:29.943Z,25.50
2023-05-22T13:47:56.664Z,25.40
2023-05-22T13:50:23.364Z,25.40
2023-05-22T13:52:50.105Z,25.40
2023-05-22T13:55:16.940Z,25.40
2023-05-22T13:57:43.592Z,25.30
2023-05-22T14:00:13.847Z,25.30
2023-05-22T14:02:40.782Z,25.30
2023-05-22T14:05:08.367Z,25.30
2023-05-22T14:07:35.066Z,25.20
2023-05-22T14:10:02.013Z,25.20
2023-05-22T14:12:28.732Z,25.20
2023-05-22T14:14:55.602Z,25.20
2023-05-22T14:17:22.306Z,25.20
2023-05-22T14:19:48.984Z,25.20
2023-05-22T14:22:15.667Z,25.20
2023-05-22T14:24:42.340Z,25.20
2023-05-22T14:27:10.029Z,25.20
2023-05-22T14:29:36.755Z,25.10
2023-05-22T14:32:04.875Z,25.10
2023-05-22T14:34:31.843Z,25.20
2023-05-22T14:36:58.727Z,25.10
2023-05-22T14:39:25.797Z,25.10
2023-05-22T14:41:53.290Z,25.10
2023-05-22T14:44:22.382Z,25.10
2023-05-22T14:46:51.077Z,25.10
2023-05-22T14:49:17.986Z,25.10
2023-05-22T14:51:47.925Z,25.10
2023-05-22T14:54:17.965Z,25.10
2023-05-22T14:56:45.455Z,25.10
2023-05-22T14:59:12.589Z,25.10
2023-05-22T15:01:39.605Z,25.20
2023-05-22T15:04:07.869Z,25.20
2023-05-22T15:06:34.977Z,25.20
2023-05-22T15:09:01.727Z,25.20
2023-05-22T15:11:28.427Z,25.20
2023-05-22T15:13:55.075Z,25.20
2023-05-22T15:16:22.543Z,25.20
2023-05-22T15:18:49.315Z,25.20
2023-05-22T15:21:16.749Z,25.20
2023-05-22T15:23:43.445Z,25.20
2023-05-22T15:26:10.186Z,25.20
2023-05-22T15:28:36.925Z,25.30
2023-05-22T15:31:03.614Z,25.30
2023-05-22T15:33:30.753Z,25.30
2023-05-22T15:35:57.493Z,25.30
2023-05-22T15:38:24.159Z,25.30
2023-05-22T15:40:50.894Z,25.40
2023-05-22T15:43:17.636Z,25.40
2023-05-22T15:45:47.420Z,25.40
2023-05-22T15:48:14.217Z,25.50
2023-05-22T15:50:40.980Z,25.50
2023-05-22T15:53:07.676Z,25.50
2023-05-22T15:55:34.542Z,25.50
2023-05-22T15:58:02.727Z,25.60
2023-05-22T16:00:29.421Z,25.60
2023-05-22T16:02:56.388Z,25.60
2023-05-22T16:05:23.203Z,25.60
2023-05-22T16:07:50.080Z,25.60
2023-05-22T16:10:16.869Z,25.60
2023-05-22T16:12:43.577Z,25.60
2023-05-22T16:15:10.715Z,25.70
2023-05-22T16:17:38.231Z,25.70
2023-05-22T16:20:05.773Z,25.70
2023-05-22T16:22:44.103Z,25.70
2023-05-22T16:25:17.891Z,25.70
2023-05-22T16:27:44.590Z,25.70
2023-05-22T16:30:12.183Z,25.70
2023-05-22T16:32:39.228Z,25.70
2023-05-22T16:35:06.320Z,25.80
2023-05-22T16:37:33.785Z,25.80
2023-05-22T16:40:00.989Z,25.80
2023-05-22T16:42:27.766Z,25.80
2023-05-22T16:44:54.454Z,25.80
2023-05-22T16:47:21.840Z,25.80
2023-05-22T16:49:49.438Z,25.70
2023-05-22T16:52:17.939Z,25.70
2023-05-22T16:54:44.604Z,25.70
2023-05-22T16:57:11.304Z,25.70
2023-05-22T16:59:38.108Z,25.60
2023-05-22T17:02:05.450Z,25.60
2023-05-22T17:04:32.162Z,25.50
2023-05-22T17:06:58.869Z,25.50
2023-05-22T17:09:25.820Z,25.40
2023-05-22T17:11:52.561Z,25.40
2023-05-22T17:14:21.703Z,25.30
2023-05-22T17:16:49.228Z,25.30
2023-05-22T17:19:17.863Z,25.30
2023-05-22T17:21:44.705Z,25.20
2023-05-22T17:24:14.679Z,25.20
2023-05-22T17:26:41.830Z,25.20
2023-05-22T17:29:09.427Z,25.20
2023-05-22T17:31:38.846Z,25.10
2023-05-22T17:34:06.088Z,25.00
2023-05-22T17:36:32.902Z,24.90
2023-05-22T17:38:59.779Z,24.80
2023-05-22T17:41:26.625Z,24.70
2023-05-22T17:43:54.673Z,24.60
2023-05-22T17:46:21.425Z,24.40
2023-05-22T17:48:48.189Z,24.30
2023-05-22T17:51:14.983Z,24.30
2023-05-22T17:53:42.256Z,24.20
2023-05-22T17:56:08.936Z,24.10
2023-05-22T17:58:35.795Z,24.10
2023-05-22T18:01:02.526Z,24.10
2023-05-22T18:03:30.128Z,24.00
2023-05-22T18:05:56.971Z,24.00
2023-05-22T18:08:23.758Z,23.90
2023-05-22T18:10:50.512Z,23.90
2023-05-22T18:13:19.217Z,23.80
2023-05-22T18:15:46.045Z,23.70
2023-05-22T18:18:13.227Z,23.70
2023-05-22T18:20:40.286Z,23.60
2023-05-22T18:23:07.266Z,23.60
2023-05-22T18:25:34.856Z,23.50
2023-05-22T18:28:01.536Z,23.40
2023-05-22T18:30:28.254Z,23.40
2023-05-22T18:32:55.058Z,23.30
2023-05-22T18:35:21.858Z,23.30
2023-05-22T18:37:48.535Z,23.20
2023-05-22T18:40:16.303Z,23.10
2023-05-22T18:42:43.458Z,23.00
2023-05-22T18:45:11.613Z,23.00
2023-05-22T18:47:38.393Z,22.90
2023-05-22T18:50:05.501Z,22.90
2023-05-22T18:52:32.148Z,22.80
2023-05-22T18:54:58.797Z,22.70
2023-05-22T18:57:25.550Z,22.70
2023-05-22T18:59:52.228Z,22.70
2023-05-22T19:02:21.298Z,22.60
2023-05-22T19:04:49.011Z,22.60
2023-05-22T19:07:15.849Z,22.50
2023-05-22T19:09:42.881Z,22.50
2023-05-22T19:12:09.647Z,22.50
2023-05-22T19:14:36.358Z,22.50
2023-05-22T19:17:03.400Z,22.50
2023-05-22T19:19:30.310Z,22.50
2023-05-22T19:21:57.116Z,22.50
2023-05-22T19:24:23.755Z,22.40
2023-05-22T19:26:50.454Z,22.40
2023-05-22T19:29:17.185Z,22.40
2023-05-22T19:31:43.952Z,22.40
2023-05-22T19:34:10.876Z,22.30
2023-05-22T19:36:37.654Z,22.30
2023-05-22T19:39:04.347Z,22.20
2023-05-22T19:41:31.076Z,22.20
2023-05-22T19:43:57.775Z,22.10
2023-05-22T19:46:24.554Z,22.10
2023-05-22T19:48:51.268Z,22.10
2023-05-22T19:51:17.941Z,22.00
2023-05-22T19:53:44.871Z,22.00
2023-05-22T19:56:11.975Z,21.90
2023-05-22T19:58:38.686Z,21.90
2023-05-22T20:01:05.577Z,21.80
2023-05-22T20:03:32.480Z,21.70
2023-05-22T20:05:59.175Z,21.70
2023-05-22T20:08:26.184Z,21.60
2023-05-22T20:10:52.951Z,21.60
2023-05-22T20:13:19.690Z,21.50
2023-05-22T20:15:47.650Z,21.40
2023-05-22T20:18:14.597Z,21.30
2023-05-22T20:20:41.395Z,21.20
2023-05-22T20:23:08.179Z,21.10
2023-05-22T20:25:35.038Z,21.10
2023-05-22T20:28:03.805Z,21.00
2023-05-22T20:30:31.067Z,21.00
2023-05-22T20:32:57.823Z,20.90
2023-05-22T20:35:26.354Z,20.80
2023-05-22T20:37:53.382Z,20.80
2023-05-22T20:40:20.306Z,20.80
2023-05-22T20:42:47.490Z,20.80
2023-05-22T20:45:15.422Z,20.80
2023-05-22T20:47:43.472Z,20.70
2023-05-22T20:50:11.191Z,20.70
2023-05-22T20:52:38.094Z,20.70
2023-05-22T20:55:05.501Z,20.60
2023-05-22T20:57:32.245Z,20.60
2023-05-22T20:59:59.387Z,20.60
2023-05-22T21:02:26.234Z,20.60
2023-05-22T21:04:53.240Z,20.50
2023-05-22T21:07:19.950Z,20.50
2023-05-22T21:09:46.623Z,20.40
2023-05-22T21:12:13.285Z,20.40
2023-05-22T21:14:40.332Z,20.40
2023-05-22T21:17:07.255Z,20.40
2023-05-22T21:19:34.163Z,20.30
2023-05-22T21:22:00.854Z,20.30
2023-05-22T21:24:27.712Z,20.20
2023-05-22T21:26:54.399Z,20.20
2023-05-22T21:29:21.123Z,20.20
2023-05-22T21:31:47.912Z,20.10
2023-05-22T21:34:14.804Z,20.10
2023-05-22T21:36:41.588Z,20.10
2023-05-22T21:39:08.347Z,20.00
2023-05-22T21:41:35.206Z,20.00
2023-05-22T21:44:01.867Z,20.00
2023-05-22T21:46:28.543Z,19.90
2023-05-22T21:48:55.276Z,19.90
2023-05-22T21:51:22.032Z,19.90
2023-05-22T21:53:48.690Z,19.80
2023-05-22T21:56:15.427Z,19.80
2023-05-22T21:58:42.119Z,19.80
2023-05-22T22:01:09.288Z,19.80
2023-05-22T22:03:36.073Z,19.80
2023-05-22T22:06:02.843Z,19.70
2023-05-22T22:08:29.606Z,19.70
2023-05-22T22:10:58.208Z,19.70
2023-05-22T22:13:24.937Z,19.60
2023-05-22T22:15:51.735Z,19.60
2023-05-22T22:18:18.931Z,19.60
2023-05-22T22:20:45.820Z,19.60
2023-05-22T22:23:12.868Z,19.50
2023-05-22T22:25:39.676Z,19.50
2023-05-22T22:28:07.274Z,19.50
2023-05-22T22:30:35.014Z,19.40
2023-05-22T22:33:01.831Z,19.40
2023-05-22T22:35:28.806Z,19.30
2023-05-22T22:37:55.666Z,19.30
2023-05-22T22:40:23.379Z,19.30
2023-05-22T22:42:51.619Z,19.30
2023-05-22T22:45:18.307Z,19.30
2023-05-22T22:47:45.974Z,19.30
2023-05-22T22:50:12.719Z,19.20
2023-05-22T22:52:41.624Z,19.20
2023-05-22T22:55:09.048Z,19.20
2023-05-22T22:57:36.002Z,19.20
2023-05-22T23:00:03.522Z,19.20
2023-05-22T23:02:30.222Z,19.10
2023-05-22T23:04:57.000Z,19.10
2023-05-22T23:07:24.073Z,19.10
2023-05-22T23:09:50.871Z,19.00
2023-05-22T23:12:17.549Z,19.00
2023-05-22T23:14:44.857Z,19.00
2023-05-22T23:17:11.680Z,19.00
2023-05-22T23:19:38.394Z,19.00
2023-05-22T23:22:05.244Z,18.90
2023-05-22T23:24:31.961Z,18.90
2023-05-22T23:26:58.709Z,18.90
2023-05-22T23:29:25.628Z,18.90
2023-05-22T23:31:52.410Z,18.80
2023-05-22T23:34:19.327Z,18.80
2023-05-22T23:36:46.006Z,18.80
2023-05-22T23:39:12.678Z,18.70
2023-05-22T23:41:39.340Z,18.70
2023-05-22T23:44:06.204Z,18.60
2023-05-22T23:46:32.974Z,18.60
2023-05-22T23:48:59.702Z,18.60
2023-05-22T23:51:26.407Z,18.60
2023-05-22T23:53:53.054Z,18.60
2023-05-22T23:56:19.723Z,18.50
2023-05-22T23:58:46.394Z,18.50
